sensor_id;sensor_type;location;lat;lon;timestamp;temperature;humidity
37276;DHT22;23166;51.150;21.620;2022-10-16T00:00:23;11.00;99.90
37276;DHT22;23166;51.150;21.620;2022-10-16T00:02:51;11.00;99.90
37276;DHT22;23166;51.150;21.620;2022-10-16T00:05:17;11.00;99.90
37276;DHT22;23166;51.150;21.620;2022-10-16T00:07:44;11.00;99.90
37276;DHT22;23166;51.150;21.620;2022-10-16T00:10:10;11.00;99.90
37276;DHT22;23166;51.150;21.620;2022-10-16T00:12:36;11.00;99.90
37276;DHT22;23166;51.150;21.620;2022-10-16T00:15:03;11.00;99.90
37276;DHT22;23166;51.150;21.620;2022-10-16T00:17:30;11.00;99.90
37276;DHT22;23166;51.150;21.620;2022-10-16T00:19:56;11.00;99.90
37276;DHT22;23166;51.150;21.620;2022-10-16T00:22:23;11.00;99.90
37276;DHT22;23166;51.150;21.620;2022-10-16T00:24:50;11.00;99.90
37276;DHT22;23166;51.150;21.620;2022-10-16T00:27:16;11.00;99.90
37276;DHT22;23166;51.150;21.620;2022-10-16T00:29:43;11.10;99.90
37276;DHT22;23166;51.150;21.620;2022-10-16T00:32:09;11.10;99.90
37276;DHT22;23166;51.150;21.620;2022-10-16T00:34:36;11.10;99.90
37276;DHT22;23166;51.150;21.620;2022-10-16T00:37:02;11.10;99.90
37276;DHT22;23166;51.150;21.620;2022-10-16T00:39:29;11.10;99.90
37276;DHT22;23166;51.150;21.620;2022-10-16T00:41:55;11.10;99.90
37276;DHT22;23166;51.150;21.620;2022-10-16T00:47:40;11.20;99.90
37276;DHT22;23166;51.150;21.620;2022-10-16T00:50:10;11.10;99.90
37276;DHT22;23166;51.150;21.620;2022-10-16T00:52:39;11.10;99.90
37276;DHT22;23166;51.150;21.620;2022-10-16T00:55:08;11.10;99.90
37276;DHT22;23166;51.150;21.620;2022-10-16T00:57:36;11.00;99.90
37276;DHT22;23166;51.150;21.620;2022-10-16T01:00:05;11.00;99.90
37276;DHT22;23166;51.150;21.620;2022-10-16T01:02:32;10.90;99.90
37276;DHT22;23166;51.150;21.620;2022-10-16T01:04:58;10.90;99.90
37276;DHT22;23166;51.150;21.620;2022-10-16T01:13:11;10.90;99.90
37276;DHT22;23166;51.150;21.620;2022-10-16T01:21:10;10.80;99.90
37276;DHT22;23166;51.150;21.620;2022-10-16T01:31:41;10.80;99.90
37276;DHT22;23166;51.150;21.620;2022-10-16T01:36:42;10.70;99.90
37276;DHT22;23166;51.150;21.620;2022-10-16T01:39:10;10.70;99.90
37276;DHT22;23166;51.150;21.620;2022-10-16T01:41:41;10.70;99.90
37276;DHT22;23166;51.150;21.620;2022-10-16T01:44:16;10.80;99.90
37276;DHT22;23166;51.150;21.620;2022-10-16T01:46:46;10.80;99.90
37276;DHT22;23166;51.150;21.620;2022-10-16T01:49:13;10.80;99.90
37276;DHT22;23166;51.150;21.620;2022-10-16T01:51:41;10.90;99.90
37276;DHT22;23166;51.150;21.620;2022-10-16T01:54:11;10.90;99.90
37276;DHT22;23166;51.150;21.620;2022-10-16T01:56:40;10.90;99.90
37276;DHT22;23166;51.150;21.620;2022-10-16T01:59:09;11.00;99.90
37276;DHT22;23166;51.150;21.620;2022-10-16T02:01:40;11.00;99.90
37276;DHT22;23166;51.150;21.620;2022-10-16T02:04:23;11.10;99.90
37276;DHT22;23166;51.150;21.620;2022-10-16T02:06:48;11.10;99.90
37276;DHT22;23166;51.150;21.620;2022-10-16T02:09:15;11.20;99.90
37276;DHT22;23166;51.150;21.620;2022-10-16T02:11:43;11.20;99.90
37276;DHT22;23166;51.150;21.620;2022-10-16T02:14:10;11.30;99.90
37276;DHT22;23166;51.150;21.620;2022-10-16T02:16:39;11.30;99.90
37276;DHT22;23166;51.150;21.620;2022-10-16T02:19:07;11.30;99.90
37276;DHT22;23166;51.150;21.620;2022-10-16T02:27:17;11.40;99.90
37276;DHT22;23166;51.150;21.620;2022-10-16T02:29:48;11.50;99.90
37276;DHT22;23166;51.150;21.620;2022-10-16T02:32:19;11.50;99.90
37276;DHT22;23166;51.150;21.620;2022-10-16T02:34:48;11.50;99.90
37276;DHT22;23166;51.150;21.620;2022-10-16T02:37:16;11.60;99.90
37276;DHT22;23166;51.150;21.620;2022-10-16T02:39:44;11.60;99.90
37276;DHT22;23166;51.150;21.620;2022-10-16T02:42:12;11.60;99.90
37276;DHT22;23166;51.150;21.620;2022-10-16T02:44:40;11.60;99.90
37276;DHT22;23166;51.150;21.620;2022-10-16T02:47:06;11.60;99.90
37276;DHT22;23166;51.150;21.620;2022-10-16T02:49:33;11.70;99.90
37276;DHT22;23166;51.150;21.620;2022-10-16T02:51:59;11.70;99.90
37276;DHT22;23166;51.150;21.620;2022-10-16T02:54:25;11.70;99.90
37276;DHT22;23166;51.150;21.620;2022-10-16T02:56:52;11.70;99.90
37276;DHT22;23166;51.150;21.620;2022-10-16T02:59:18;11.70;99.90
37276;DHT22;23166;51.150;21.620;2022-10-16T03:01:45;11.70;99.90
37276;DHT22;23166;51.150;21.620;2022-10-16T03:04:11;11.70;99.90
37276;DHT22;23166;51.150;21.620;2022-10-16T03:06:37;11.70;99.90
37276;DHT22;23166;51.150;21.620;2022-10-16T03:09:04;11.70;99.90
37276;DHT22;23166;51.150;21.620;2022-10-16T03:11:30;11.70;99.90
37276;DHT22;23166;51.150;21.620;2022-10-16T03:13:57;11.70;99.90
37276;DHT22;23166;51.150;21.620;2022-10-16T03:16:23;11.70;99.90
37276;DHT22;23166;51.150;21.620;2022-10-16T03:18:49;11.70;99.90
37276;DHT22;23166;51.150;21.620;2022-10-16T03:21:16;11.70;99.90
37276;DHT22;23166;51.150;21.620;2022-10-16T03:23:42;11.70;99.90
37276;DHT22;23166;51.150;21.620;2022-10-16T03:26:09;11.70;99.90
37276;DHT22;23166;51.150;21.620;2022-10-16T03:28:35;11.70;99.90
37276;DHT22;23166;51.150;21.620;2022-10-16T03:31:01;11.70;99.90
37276;DHT22;23166;51.150;21.620;2022-10-16T03:33:28;11.70;99.90
37276;DHT22;23166;51.150;21.620;2022-10-16T03:35:55;11.70;99.90
37276;DHT22;23166;51.150;21.620;2022-10-16T03:38:21;11.70;99.90
37276;DHT22;23166;51.150;21.620;2022-10-16T03:40:48;11.60;99.90
37276;DHT22;23166;51.150;21.620;2022-10-16T03:43:14;11.60;99.90
37276;DHT22;23166;51.150;21.620;2022-10-16T03:45:40;11.60;99.90
37276;DHT22;23166;51.150;21.620;2022-10-16T03:48:07;11.60;99.90
37276;DHT22;23166;51.150;21.620;2022-10-16T03:50:33;11.60;99.90
37276;DHT22;23166;51.150;21.620;2022-10-16T03:52:59;11.60;99.90
37276;DHT22;23166;51.150;21.620;2022-10-16T03:55:26;11.60;99.90
37276;DHT22;23166;51.150;21.620;2022-10-16T03:57:52;11.60;99.90
37276;DHT22;23166;51.150;21.620;2022-10-16T04:00:19;11.60;99.90
37276;DHT22;23166;51.150;21.620;2022-10-16T04:02:45;11.50;99.90
37276;DHT22;23166;51.150;21.620;2022-10-16T04:05:11;11.50;99.90
37276;DHT22;23166;51.150;21.620;2022-10-16T04:07:38;11.50;99.90
37276;DHT22;23166;51.150;21.620;2022-10-16T04:10:05;11.50;99.90
37276;DHT22;23166;51.150;21.620;2022-10-16T04:12:31;11.50;99.90
37276;DHT22;23166;51.150;21.620;2022-10-16T04:14:57;11.50;99.90
37276;DHT22;23166;51.150;21.620;2022-10-16T04:17:24;11.50;99.90
37276;DHT22;23166;51.150;21.620;2022-10-16T04:19:50;11.40;99.90
37276;DHT22;23166;51.150;21.620;2022-10-16T04:22:16;11.40;99.90
37276;DHT22;23166;51.150;21.620;2022-10-16T04:24:43;11.40;99.90
37276;DHT22;23166;51.150;21.620;2022-10-16T04:27:09;11.30;99.90
37276;DHT22;23166;51.150;21.620;2022-10-16T04:29:36;11.30;99.90
37276;DHT22;23166;51.150;21.620;2022-10-16T04:32:02;11.20;99.90
37276;DHT22;23166;51.150;21.620;2022-10-16T04:34:28;11.20;99.90
37276;DHT22;23166;51.150;21.620;2022-10-16T04:36:55;11.10;99.90
37276;DHT22;23166;51.150;21.620;2022-10-16T04:39:21;11.00;99.90
37276;DHT22;23166;51.150;21.620;2022-10-16T04:41:47;11.00;99.90
37276;DHT22;23166;51.150;21.620;2022-10-16T04:44:14;11.00;99.90
37276;DHT22;23166;51.150;21.620;2022-10-16T04:46:40;10.90;99.90
37276;DHT22;23166;51.150;21.620;2022-10-16T04:49:06;10.90;99.90
37276;DHT22;23166;51.150;21.620;2022-10-16T04:51:33;10.90;99.90
37276;DHT22;23166;51.150;21.620;2022-10-16T04:53:59;10.80;99.90
37276;DHT22;23166;51.150;21.620;2022-10-16T04:56:25;10.80;99.90
37276;DHT22;23166;51.150;21.620;2022-10-16T04:58:52;10.80;99.90
37276;DHT22;23166;51.150;21.620;2022-10-16T05:01:18;10.70;99.90
37276;DHT22;23166;51.150;21.620;2022-10-16T05:03:45;10.70;99.90
37276;DHT22;23166;51.150;21.620;2022-10-16T05:06:11;10.70;99.90
37276;DHT22;23166;51.150;21.620;2022-10-16T05:08:38;10.70;99.90
37276;DHT22;23166;51.150;21.620;2022-10-16T05:11:04;10.70;99.90
37276;DHT22;23166;51.150;21.620;2022-10-16T05:13:31;10.70;99.90
37276;DHT22;23166;51.150;21.620;2022-10-16T05:15:57;10.70;99.90
37276;DHT22;23166;51.150;21.620;2022-10-16T05:18:23;10.80;99.90
37276;DHT22;23166;51.150;21.620;2022-10-16T05:20:50;10.80;99.90
37276;DHT22;23166;51.150;21.620;2022-10-16T05:23:16;10.80;99.90
37276;DHT22;23166;51.150;21.620;2022-10-16T05:25:43;10.80;99.90
37276;DHT22;23166;51.150;21.620;2022-10-16T05:28:09;10.80;99.90
37276;DHT22;23166;51.150;21.620;2022-10-16T05:30:37;10.80;99.90
37276;DHT22;23166;51.150;21.620;2022-10-16T05:33:03;10.90;99.90
37276;DHT22;23166;51.150;21.620;2022-10-16T05:35:30;10.90;99.90
37276;DHT22;23166;51.150;21.620;2022-10-16T05:37:56;11.00;99.90
37276;DHT22;23166;51.150;21.620;2022-10-16T05:40:23;11.00;99.90
37276;DHT22;23166;51.150;21.620;2022-10-16T05:42:49;11.10;99.90
37276;DHT22;23166;51.150;21.620;2022-10-16T05:45:15;11.20;99.90
37276;DHT22;23166;51.150;21.620;2022-10-16T05:47:42;11.40;99.90
37276;DHT22;23166;51.150;21.620;2022-10-16T05:50:08;11.50;99.90
37276;DHT22;23166;51.150;21.620;2022-10-16T05:52:35;11.60;99.90
37276;DHT22;23166;51.150;21.620;2022-10-16T05:55:02;11.70;99.90
37276;DHT22;23166;51.150;21.620;2022-10-16T05:57:28;11.90;99.90
37276;DHT22;23166;51.150;21.620;2022-10-16T05:59:55;11.90;99.90
37276;DHT22;23166;51.150;21.620;2022-10-16T06:02:21;12.10;99.90
37276;DHT22;23166;51.150;21.620;2022-10-16T06:04:47;12.20;99.90
37276;DHT22;23166;51.150;21.620;2022-10-16T06:07:14;12.40;99.90
37276;DHT22;23166;51.150;21.620;2022-10-16T06:09:40;12.50;99.90
37276;DHT22;23166;51.150;21.620;2022-10-16T06:12:07;12.60;99.90
37276;DHT22;23166;51.150;21.620;2022-10-16T06:14:33;12.70;98.70
37276;DHT22;23166;51.150;21.620;2022-10-16T06:17:00;12.80;97.00
37276;DHT22;23166;51.150;21.620;2022-10-16T06:19:26;12.90;96.60
37276;DHT22;23166;51.150;21.620;2022-10-16T06:21:52;12.90;95.90
37276;DHT22;23166;51.150;21.620;2022-10-16T06:24:19;12.90;95.80
37276;DHT22;23166;51.150;21.620;2022-10-16T06:26:45;12.90;95.90
37276;DHT22;23166;51.150;21.620;2022-10-16T06:29:12;13.00;94.80
37276;DHT22;23166;51.150;21.620;2022-10-16T06:31:38;13.00;94.60
37276;DHT22;23166;51.150;21.620;2022-10-16T06:34:04;13.00;94.50
37276;DHT22;23166;51.150;21.620;2022-10-16T06:36:32;13.10;94.20
37276;DHT22;23166;51.150;21.620;2022-10-16T06:39:02;13.20;93.80
37276;DHT22;23166;51.150;21.620;2022-10-16T06:41:29;13.40;91.70
37276;DHT22;23166;51.150;21.620;2022-10-16T06:43:55;13.50;90.00
37276;DHT22;23166;51.150;21.620;2022-10-16T06:46:23;13.60;88.20
37276;DHT22;23166;51.150;21.620;2022-10-16T06:48:50;13.70;84.00
37276;DHT22;23166;51.150;21.620;2022-10-16T06:51:21;13.80;82.50
37276;DHT22;23166;51.150;21.620;2022-10-16T06:53:50;13.90;80.90
37276;DHT22;23166;51.150;21.620;2022-10-16T06:56:19;13.90;78.00
37276;DHT22;23166;51.150;21.620;2022-10-16T06:58:46;14.00;76.20
37276;DHT22;23166;51.150;21.620;2022-10-16T07:01:13;14.10;75.20
37276;DHT22;23166;51.150;21.620;2022-10-16T07:03:41;14.10;72.50
37276;DHT22;23166;51.150;21.620;2022-10-16T07:06:09;14.20;68.00
37276;DHT22;23166;51.150;21.620;2022-10-16T07:08:38;14.30;68.90
37276;DHT22;23166;51.150;21.620;2022-10-16T07:11:07;14.30;64.90
37276;DHT22;23166;51.150;21.620;2022-10-16T07:13:40;14.40;60.20
37276;DHT22;23166;51.150;21.620;2022-10-16T07:16:15;14.50;56.60
37276;DHT22;23166;51.150;21.620;2022-10-16T07:18:39;14.50;54.20
37276;DHT22;23166;51.150;21.620;2022-10-16T07:21:08;14.50;47.80
37276;DHT22;23166;51.150;21.620;2022-10-16T07:23:35;14.50;51.80
37276;DHT22;23166;51.150;21.620;2022-10-16T07:26:02;14.40;57.80
37276;DHT22;23166;51.150;21.620;2022-10-16T07:28:29;14.40;62.30
37276;DHT22;23166;51.150;21.620;2022-10-16T07:30:55;14.30;63.30
37276;DHT22;23166;51.150;21.620;2022-10-16T07:33:22;14.30;63.30
37276;DHT22;23166;51.150;21.620;2022-10-16T07:35:52;14.40;62.20
37276;DHT22;23166;51.150;21.620;2022-10-16T07:38:19;14.40;58.40
37276;DHT22;23166;51.150;21.620;2022-10-16T07:40:46;14.40;56.80
37276;DHT22;23166;51.150;21.620;2022-10-16T07:43:13;14.40;56.80
37276;DHT22;23166;51.150;21.620;2022-10-16T07:45:47;14.60;55.10
37276;DHT22;23166;51.150;21.620;2022-10-16T07:48:15;14.80;50.30
37276;DHT22;23166;51.150;21.620;2022-10-16T07:50:42;15.10;49.10
37276;DHT22;23166;51.150;21.620;2022-10-16T07:53:09;15.50;27.60
37276;DHT22;23166;51.150;21.620;2022-10-16T07:55:35;15.90;2.20
37276;DHT22;23166;51.150;21.620;2022-10-16T07:58:02;16.10;1.00
37276;DHT22;23166;51.150;21.620;2022-10-16T08:00:29;16.30;1.00
37276;DHT22;23166;51.150;21.620;2022-10-16T08:03:01;16.50;1.00
37276;DHT22;23166;51.150;21.620;2022-10-16T08:05:28;16.60;1.00
37276;DHT22;23166;51.150;21.620;2022-10-16T08:07:55;16.70;1.00
37276;DHT22;23166;51.150;21.620;2022-10-16T08:10:24;16.80;1.00
37276;DHT22;23166;51.150;21.620;2022-10-16T08:12:51;16.90;1.00
37276;DHT22;23166;51.150;21.620;2022-10-16T08:15:18;16.90;1.00
37276;DHT22;23166;51.150;21.620;2022-10-16T08:17:53;16.80;1.00
37276;DHT22;23166;51.150;21.620;2022-10-16T08:20:13;16.90;1.00
37276;DHT22;23166;51.150;21.620;2022-10-16T08:22:39;16.90;1.00
37276;DHT22;23166;51.150;21.620;2022-10-16T08:25:06;17.00;1.00
37276;DHT22;23166;51.150;21.620;2022-10-16T08:27:32;17.00;1.00
37276;DHT22;23166;51.150;21.620;2022-10-16T08:29:59;17.00;1.00
37276;DHT22;23166;51.150;21.620;2022-10-16T08:32:25;17.10;1.00
37276;DHT22;23166;51.150;21.620;2022-10-16T08:34:52;17.20;1.00
37276;DHT22;23166;51.150;21.620;2022-10-16T08:37:19;17.40;1.00
37276;DHT22;23166;51.150;21.620;2022-10-16T08:39:46;17.60;1.00
37276;DHT22;23166;51.150;21.620;2022-10-16T08:50:25;18.00;99.90
37276;DHT22;23166;51.150;21.620;2022-10-16T08:52:53;18.10;99.90
37276;DHT22;23166;51.150;21.620;2022-10-16T08:55:37;18.30;99.90
37276;DHT22;23166;51.150;21.620;2022-10-16T08:58:12;18.40;99.90
37276;DHT22;23166;51.150;21.620;2022-10-16T09:00:39;18.50;99.90
37276;DHT22;23166;51.150;21.620;2022-10-16T09:12:01;19.10;1.00
37276;DHT22;23166;51.150;21.620;2022-10-16T09:22:42;19.10;99.90
37276;DHT22;23166;51.150;21.620;2022-10-16T09:25:18;19.10;1.00
37276;DHT22;23166;51.150;21.620;2022-10-16T09:27:44;19.10;1.00
37276;DHT22;23166;51.150;21.620;2022-10-16T09:30:17;19.20;99.90
37276;DHT22;23166;51.150;21.620;2022-10-16T09:32:46;19.30;99.90
37276;DHT22;23166;51.150;21.620;2022-10-16T09:35:22;19.30;99.90
37276;DHT22;23166;51.150;21.620;2022-10-16T09:37:49;19.40;99.90
37276;DHT22;23166;51.150;21.620;2022-10-16T09:40:28;19.50;99.90
37276;DHT22;23166;51.150;21.620;2022-10-16T09:42:56;19.60;99.90
37276;DHT22;23166;51.150;21.620;2022-10-16T09:45:23;19.80;99.90
37276;DHT22;23166;51.150;21.620;2022-10-16T09:47:50;19.90;99.90
37276;DHT22;23166;51.150;21.620;2022-10-16T09:50:23;20.10;1.00
37276;DHT22;23166;51.150;21.620;2022-10-16T09:52:50;20.20;99.90
37276;DHT22;23166;51.150;21.620;2022-10-16T09:55:17;20.30;99.90
37276;DHT22;23166;51.150;21.620;2022-10-16T09:57:51;20.40;99.90
37276;DHT22;23166;51.150;21.620;2022-10-16T10:00:18;20.60;1.00
37276;DHT22;23166;51.150;21.620;2022-10-16T10:02:45;20.70;1.00
37276;DHT22;23166;51.150;21.620;2022-10-16T10:05:18;20.90;99.90
37276;DHT22;23166;51.150;21.620;2022-10-16T10:07:45;21.00;99.90
37276;DHT22;23166;51.150;21.620;2022-10-16T10:10:23;21.00;1.00
37276;DHT22;23166;51.150;21.620;2022-10-16T10:12:50;21.00;99.90
37276;DHT22;23166;51.150;21.620;2022-10-16T10:15:17;21.10;99.90
37276;DHT22;23166;51.150;21.620;2022-10-16T10:17:53;21.10;1.00
37276;DHT22;23166;51.150;21.620;2022-10-16T10:20:29;21.10;99.90
37276;DHT22;23166;51.150;21.620;2022-10-16T10:22:56;21.00;1.00
37276;DHT22;23166;51.150;21.620;2022-10-16T10:28:33;21.00;99.90
37276;DHT22;23166;51.150;21.620;2022-10-16T10:42:02;21.60;99.90
37276;DHT22;23166;51.150;21.620;2022-10-16T10:49:42;22.10;99.90
37276;DHT22;23166;51.150;21.620;2022-10-16T11:01:15;22.30;99.90
37276;DHT22;23166;51.150;21.620;2022-10-16T11:06:33;22.20;99.90
37276;DHT22;23166;51.150;21.620;2022-10-16T11:11:56;21.90;99.90
37276;DHT22;23166;51.150;21.620;2022-10-16T11:14:29;21.80;21.80
37276;DHT22;23166;51.150;21.620;2022-10-16T11:17:01;21.70;99.90
37276;DHT22;23166;51.150;21.620;2022-10-16T11:19:47;21.70;99.90
37276;DHT22;23166;51.150;21.620;2022-10-16T11:30:30;21.80;99.90
37276;DHT22;23166;51.150;21.620;2022-10-16T11:33:19;21.80;1.00
37276;DHT22;23166;51.150;21.620;2022-10-16T11:40:49;22.00;92.60
37276;DHT22;23166;51.150;21.620;2022-10-16T11:43:26;22.00;99.90
37276;DHT22;23166;51.150;21.620;2022-10-16T11:45:55;22.00;99.90
37276;DHT22;23166;51.150;21.620;2022-10-16T11:48:43;22.00;99.90
37276;DHT22;23166;51.150;21.620;2022-10-16T11:51:31;22.00;99.90
37276;DHT22;23166;51.150;21.620;2022-10-16T11:54:14;22.00;99.90
37276;DHT22;23166;51.150;21.620;2022-10-16T11:56:38;22.00;1.00
37276;DHT22;23166;51.150;21.620;2022-10-16T12:02:17;21.90;1.00
37276;DHT22;23166;51.150;21.620;2022-10-16T12:04:42;21.80;99.90
37276;DHT22;23166;51.150;21.620;2022-10-16T12:07:14;21.70;1.00
37276;DHT22;23166;51.150;21.620;2022-10-16T12:09:41;21.50;1.00
37276;DHT22;23166;51.150;21.620;2022-10-16T12:12:28;21.30;99.90
37276;DHT22;23166;51.150;21.620;2022-10-16T12:15:15;21.30;99.90
37276;DHT22;23166;51.150;21.620;2022-10-16T12:17:38;21.20;96.40
37276;DHT22;23166;51.150;21.620;2022-10-16T12:22:58;20.90;99.90
37276;DHT22;23166;51.150;21.620;2022-10-16T12:25:36;20.80;1.00
37276;DHT22;23166;51.150;21.620;2022-10-16T12:28:18;20.60;99.90
37276;DHT22;23166;51.150;21.620;2022-10-16T12:30:59;20.50;99.90
37276;DHT22;23166;51.150;21.620;2022-10-16T12:35:57;20.50;1.00
37276;DHT22;23166;51.150;21.620;2022-10-16T12:38:46;20.40;99.90
37276;DHT22;23166;51.150;21.620;2022-10-16T12:41:24;20.40;58.60
37276;DHT22;23166;51.150;21.620;2022-10-16T12:43:45;20.40;91.40
37276;DHT22;23166;51.150;21.620;2022-10-16T12:48:45;20.40;1.00
37276;DHT22;23166;51.150;21.620;2022-10-16T12:54:14;20.40;1.00
37276;DHT22;23166;51.150;21.620;2022-10-16T13:13:13;20.90;1.00
37276;DHT22;23166;51.150;21.620;2022-10-16T13:19:04;21.00;99.90
37276;DHT22;23166;51.150;21.620;2022-10-16T13:21:53;21.10;99.90
37276;DHT22;23166;51.150;21.620;2022-10-16T13:30:00;21.40;1.00
37276;DHT22;23166;51.150;21.620;2022-10-16T13:32:22;21.40;99.90
37276;DHT22;23166;51.150;21.620;2022-10-16T13:34:49;21.40;99.90
37276;DHT22;23166;51.150;21.620;2022-10-16T13:37:19;21.40;1.00
37276;DHT22;23166;51.150;21.620;2022-10-16T13:39:47;21.30;99.90
37276;DHT22;23166;51.150;21.620;2022-10-16T13:42:14;21.20;99.90
37276;DHT22;23166;51.150;21.620;2022-10-16T13:44:43;21.00;65.40
37276;DHT22;23166;51.150;21.620;2022-10-16T13:47:19;20.90;99.90
37276;DHT22;23166;51.150;21.620;2022-10-16T13:49:43;20.80;99.90
37276;DHT22;23166;51.150;21.620;2022-10-16T13:52:22;20.80;1.00
37276;DHT22;23166;51.150;21.620;2022-10-16T13:54:48;20.70;1.00
37276;DHT22;23166;51.150;21.620;2022-10-16T13:57:15;20.70;99.90
37276;DHT22;23166;51.150;21.620;2022-10-16T13:59:42;20.70;1.00
37276;DHT22;23166;51.150;21.620;2022-10-16T14:04:46;20.50;56.90
37276;DHT22;23166;51.150;21.620;2022-10-16T14:07:24;20.40;99.90
37276;DHT22;23166;51.150;21.620;2022-10-16T14:09:53;20.30;99.90
37276;DHT22;23166;51.150;21.620;2022-10-16T14:12:20;20.10;1.00
37276;DHT22;23166;51.150;21.620;2022-10-16T14:14:50;20.00;39.40
37276;DHT22;23166;51.150;21.620;2022-10-16T14:17:22;19.90;1.00
37276;DHT22;23166;51.150;21.620;2022-10-16T14:19:53;19.80;99.90
37276;DHT22;23166;51.150;21.620;2022-10-16T14:22:33;19.70;87.20
37276;DHT22;23166;51.150;21.620;2022-10-16T14:24:56;19.60;99.90
37276;DHT22;23166;51.150;21.620;2022-10-16T14:27:34;19.50;1.00
37276;DHT22;23166;51.150;21.620;2022-10-16T14:30:16;19.40;1.00
37276;DHT22;23166;51.150;21.620;2022-10-16T14:32:58;19.30;99.90
37276;DHT22;23166;51.150;21.620;2022-10-16T14:35:34;19.40;99.90
37276;DHT22;23166;51.150;21.620;2022-10-16T14:38:03;19.40;1.60
37276;DHT22;23166;51.150;21.620;2022-10-16T14:40:33;19.50;1.00
37276;DHT22;23166;51.150;21.620;2022-10-16T14:43:01;19.50;1.00
37276;DHT22;23166;51.150;21.620;2022-10-16T14:45:31;19.50;1.00
37276;DHT22;23166;51.150;21.620;2022-10-16T14:48:01;19.40;38.90
37276;DHT22;23166;51.150;21.620;2022-10-16T14:50:28;19.40;99.90
37276;DHT22;23166;51.150;21.620;2022-10-16T14:52:55;19.40;99.90
37276;DHT22;23166;51.150;21.620;2022-10-16T14:55:21;19.30;99.90
37276;DHT22;23166;51.150;21.620;2022-10-16T14:57:48;19.20;99.90
37276;DHT22;23166;51.150;21.620;2022-10-16T15:00:20;19.00;99.90
37276;DHT22;23166;51.150;21.620;2022-10-16T15:02:48;18.90;99.90
37276;DHT22;23166;51.150;21.620;2022-10-16T15:05:20;18.80;99.90
37276;DHT22;23166;51.150;21.620;2022-10-16T15:07:48;18.70;1.00
37276;DHT22;23166;51.150;21.620;2022-10-16T15:10:15;18.60;1.00
37276;DHT22;23166;51.150;21.620;2022-10-16T15:12:42;18.50;1.00
37276;DHT22;23166;51.150;21.620;2022-10-16T15:17:55;18.40;1.00
37276;DHT22;23166;51.150;21.620;2022-10-16T15:20:24;18.40;1.00
37276;DHT22;23166;51.150;21.620;2022-10-16T15:22:51;18.30;1.00
37276;DHT22;23166;51.150;21.620;2022-10-16T15:25:27;18.30;1.00
37276;DHT22;23166;51.150;21.620;2022-10-16T15:27:53;18.20;1.00
37276;DHT22;23166;51.150;21.620;2022-10-16T15:30:20;18.20;1.00
37276;DHT22;23166;51.150;21.620;2022-10-16T15:32:47;18.10;1.00
37276;DHT22;23166;51.150;21.620;2022-10-16T15:35:13;18.00;1.00
37276;DHT22;23166;51.150;21.620;2022-10-16T15:37:39;18.00;1.00
37276;DHT22;23166;51.150;21.620;2022-10-16T15:40:07;17.90;1.00
37276;DHT22;23166;51.150;21.620;2022-10-16T15:42:34;17.80;1.00
37276;DHT22;23166;51.150;21.620;2022-10-16T15:45:00;17.80;1.00
37276;DHT22;23166;51.150;21.620;2022-10-16T15:47:27;17.70;1.00
37276;DHT22;23166;51.150;21.620;2022-10-16T15:49:53;17.50;1.00
37276;DHT22;23166;51.150;21.620;2022-10-16T15:52:20;17.50;1.00
37276;DHT22;23166;51.150;21.620;2022-10-16T15:54:46;17.30;1.00
37276;DHT22;23166;51.150;21.620;2022-10-16T15:57:12;17.20;1.00
37276;DHT22;23166;51.150;21.620;2022-10-16T15:59:39;17.00;1.00
37276;DHT22;23166;51.150;21.620;2022-10-16T16:02:05;16.90;1.00
37276;DHT22;23166;51.150;21.620;2022-10-16T16:04:32;16.70;9.70
37276;DHT22;23166;51.150;21.620;2022-10-16T16:06:58;16.60;16.80
37276;DHT22;23166;51.150;21.620;2022-10-16T16:09:24;16.50;21.90
37276;DHT22;23166;51.150;21.620;2022-10-16T16:11:51;16.30;28.10
37276;DHT22;23166;51.150;21.620;2022-10-16T16:14:18;16.20;34.20
37276;DHT22;23166;51.150;21.620;2022-10-16T16:16:44;16.10;40.40
37276;DHT22;23166;51.150;21.620;2022-10-16T16:19:11;16.00;44.90
37276;DHT22;23166;51.150;21.620;2022-10-16T16:21:37;15.90;49.70
37276;DHT22;23166;51.150;21.620;2022-10-16T16:24:04;15.80;54.60
37276;DHT22;23166;51.150;21.620;2022-10-16T16:26:33;15.70;57.70
37276;DHT22;23166;51.150;21.620;2022-10-16T16:29:02;15.60;61.50
37276;DHT22;23166;51.150;21.620;2022-10-16T16:31:30;15.50;64.70
37276;DHT22;23166;51.150;21.620;2022-10-16T16:33:58;15.40;68.40
37276;DHT22;23166;51.150;21.620;2022-10-16T16:36:25;15.30;71.60
37276;DHT22;23166;51.150;21.620;2022-10-16T16:38:51;15.20;73.40
37276;DHT22;23166;51.150;21.620;2022-10-16T16:41:21;15.00;76.10
37276;DHT22;23166;51.150;21.620;2022-10-16T16:43:48;15.00;80.20
37276;DHT22;23166;51.150;21.620;2022-10-16T16:46:15;14.80;83.90
37276;DHT22;23166;51.150;21.620;2022-10-16T16:48:41;14.70;86.40
37276;DHT22;23166;51.150;21.620;2022-10-16T16:51:14;14.60;89.10
37276;DHT22;23166;51.150;21.620;2022-10-16T16:53:42;14.60;91.00
37276;DHT22;23166;51.150;21.620;2022-10-16T16:56:09;14.50;92.40
37276;DHT22;23166;51.150;21.620;2022-10-16T16:58:35;14.50;93.20
37276;DHT22;23166;51.150;21.620;2022-10-16T17:01:02;14.40;94.00
37276;DHT22;23166;51.150;21.620;2022-10-16T17:03:29;14.40;94.50
37276;DHT22;23166;51.150;21.620;2022-10-16T17:06:01;14.50;94.40
37276;DHT22;23166;51.150;21.620;2022-10-16T17:08:28;14.50;94.20
37276;DHT22;23166;51.150;21.620;2022-10-16T17:10:56;14.50;94.00
37276;DHT22;23166;51.150;21.620;2022-10-16T17:13:28;14.60;93.70
37276;DHT22;23166;51.150;21.620;2022-10-16T17:15:54;14.60;93.30
37276;DHT22;23166;51.150;21.620;2022-10-16T17:18:23;14.60;92.80
37276;DHT22;23166;51.150;21.620;2022-10-16T17:20:50;14.60;92.30
37276;DHT22;23166;51.150;21.620;2022-10-16T17:23:18;14.70;91.60
37276;DHT22;23166;51.150;21.620;2022-10-16T17:25:45;14.70;90.90
37276;DHT22;23166;51.150;21.620;2022-10-16T17:28:12;14.70;90.20
37276;DHT22;23166;51.150;21.620;2022-10-16T17:30:40;14.80;88.30
37276;DHT22;23166;51.150;21.620;2022-10-16T17:33:07;14.80;86.80
37276;DHT22;23166;51.150;21.620;2022-10-16T17:35:41;14.80;85.70
37276;DHT22;23166;51.150;21.620;2022-10-16T17:38:09;14.90;83.80
37276;DHT22;23166;51.150;21.620;2022-10-16T17:40:38;14.90;82.50
37276;DHT22;23166;51.150;21.620;2022-10-16T17:43:07;14.90;80.90
37276;DHT22;23166;51.150;21.620;2022-10-16T17:45:35;15.00;79.40
37276;DHT22;23166;51.150;21.620;2022-10-16T17:48:02;15.00;77.40
37276;DHT22;23166;51.150;21.620;2022-10-16T17:50:29;15.00;76.30
37276;DHT22;23166;51.150;21.620;2022-10-16T17:52:56;15.10;75.20
37276;DHT22;23166;51.150;21.620;2022-10-16T17:55:22;15.10;74.40